Pozo, California
Current Conditions -  °F | °C
As of 6:51 PM on Tuesday 21 Oct 2014 (Local Time) from KSMX Reporting Station
Clear Clear  
Wind Chill: 64°   Ceiling: Unl
Heat Index: 64°   Visibility: 9mi
Dew Point: 53°   Wind: 14mph
Humidity: 67%   Direction: 290°WNW
Pressure: 29.92"   Gusts: NA
Location:  35.235°N, 120.021°W
Report Text: KSMX 220151Z 29012KT 9SM CLR 18/12 A2992 RMK AO2 SLP133 T01780117
Loading
Personal Weather Stations






























Interactive Weather Map
Tropical Storm Tracking
New forecast layout! Learn more

10-Day Weather Forecast

Advertisements
Track Severe Weather on mobile